Time;durP1;ratioP1;P1;durP2;ratioP2;P2;SDS_P1;SDS_P2;PMS_P1;PMS_P2;Temp;Humidity;BMP_temperature;BMP_pressure;BME280_temperature;BME280_humidity;BME280_pressure;Samples;Min_cycle;Max_cycle;Signal;HPM_P1;HPM_P2
2021/03/14 00:00:39;;;;;;;1.07;0.50;;;5.60;86.00;;;;;;6244585;23;20066;-76
2021/03/14 00:03:06;;;;;;;2.63;0.40;;;5.60;86.60;;;;;;6218225;23;20075;-75
2021/03/14 00:05:32;;;;;;;2.83;0.30;;;5.50;86.20;;;;;;6244702;23;20011;-76
2021/03/14 00:07:58;;;;;;;1.60;0.20;;;5.40;85.80;;;;;;6245216;23;20316;-76
2021/03/14 00:10:24;;;;;;;2.70;0.30;;;5.40;86.30;;;;;;6244950;23;20059;-83
2021/03/14 00:12:50;;;;;;;1.07;0.20;;;5.40;86.30;;;;;;6218961;23;20001;-76
2021/03/14 00:15:19;;;;;;;1.23;0.20;;;5.30;86.60;;;;;;6245415;23;20004;-76
2021/03/14 00:17:44;;;;;;;1.07;0.20;;;5.30;86.10;;;;;;6244279;23;20120;-77
2021/03/14 00:20:10;;;;;;;0.97;0.23;;;5.30;85.60;;;;;;6219212;23;20028;-77
2021/03/14 00:22:36;;;;;;;0.47;0.20;;;5.20;85.40;;;;;;6218563;23;20003;-78
2021/03/14 00:25:04;;;;;;;2.00;0.10;;;5.20;85.70;;;;;;6244862;23;20008;-76
2021/03/14 00:27:29;;;;;;;0.10;0.10;;;5.10;86.20;;;;;;6217842;23;20000;-76
2021/03/14 00:29:55;;;;;;;0.93;0.20;;;5.10;86.00;;;;;;6218602;23;20032;-75
2021/03/14 00:32:21;;;;;;;1.30;0.10;;;5.10;86.30;;;;;;6245221;23;20003;-76
2021/03/14 00:34:46;;;;;;;1.53;0.20;;;5.00;85.60;;;;;;6217086;23;20008;-75
2021/03/14 00:37:12;;;;;;;0.77;0.20;;;5.00;86.20;;;;;;6245448;23;20008;-77
2021/03/14 00:39:37;;;;;;;1.07;0.10;;;4.90;86.70;;;;;;6217902;23;20000;-78
2021/03/14 00:42:04;;;;;;;0.43;0.10;;;4.90;86.50;;;;;;6244985;23;19996;-77
2021/03/14 00:44:29;;;;;;;0.80;0.17;;;4.90;86.70;;;;;;6217309;23;20000;-77
2021/03/14 00:46:55;;;;;;;2.17;0.20;;;4.90;86.80;;;;;;6218206;23;20110;-79
2021/03/14 00:49:22;;;;;;;1.90;0.20;;;4.90;87.00;;;;;;6245098;23;20437;-80
2021/03/14 00:51:50;;;;;;;0.10;0.10;;;4.90;87.00;;;;;;6217837;23;20079;-83
2021/03/14 00:54:15;;;;;;;2.17;0.27;;;4.90;86.50;;;;;;6246007;23;20026;-82
2021/03/14 00:56:41;;;;;;;0.50;0.10;;;5.00;86.90;;;;;;6246632;23;20000;-77
2021/03/14 00:59:07;;;;;;;0.67;0.13;;;4.90;87.10;;;;;;6247414;23;20004;-79
2021/03/14 01:01:32;;;;;;;1.37;0.20;;;4.90;87.20;;;;;;6220128;23;20050;-80
2021/03/14 01:03:58;;;;;;;0.20;0.10;;;4.90;87.30;;;;;;6247219;23;20016;-77
2021/03/14 01:06:24;;;;;;;0.93;0.10;;;4.90;86.30;;;;;;6220228;23;20016;-80
2021/03/14 01:08:51;;;;;;;0.50;0.00;;;4.80;86.70;;;;;;6246737;23;20004;-80
2021/03/14 01:11:16;;;;;;;0.43;0.20;;;4.80;86.90;;;;;;6220657;23;20485;-81
2021/03/14 01:13:43;;;;;;;0.30;0.20;;;4.80;87.20;;;;;;6220350;23;20000;-81
2021/03/14 01:16:09;;;;;;;1.23;0.20;;;4.80;87.20;;;;;;6220714;23;20462;-76
2021/03/14 01:18:35;;;;;;;0.20;0.10;;;4.80;87.40;;;;;;6219740;23;20004;-78
2021/03/14 01:21:00;;;;;;;0.67;0.30;;;4.80;87.00;;;;;;6221150;23;20008;-80
2021/03/14 01:23:26;;;;;;;0.80;0.20;;;4.80;86.70;;;;;;6247501;23;20001;-83
2021/03/14 01:25:52;;;;;;;0.37;0.20;;;4.70;87.30;;;;;;6220206;23;20115;-82
2021/03/14 01:28:18;;;;;;;0.50;0.27;;;4.70;86.80;;;;;;6221075;23;20083;-79
2021/03/14 01:30:43;;;;;;;0.10;0.10;;;4.70;86.90;;;;;;6246362;23;20000;-78
2021/03/14 01:33:09;;;;;;;1.87;0.40;;;4.60;86.90;;;;;;6245452;23;20030;-81
2021/03/14 01:35:35;;;;;;;0.37;0.20;;;4.70;87.20;;;;;;6247230;23;20046;-81
2021/03/14 01:38:00;;;;;;;0.80;0.20;;;4.70;87.50;;;;;;6247608;23;20007;-80
2021/03/14 01:40:26;;;;;;;0.30;0.30;;;4.70;87.40;;;;;;6221078;23;20004;-79
2021/03/14 01:42:52;;;;;;;3.03;0.30;;;4.70;87.00;;;;;;6220729;23;20006;-81
2021/03/14 01:45:18;;;;;;;1.27;0.20;;;4.70;86.90;;;;;;6221334;23;20034;-79
2021/03/14 01:47:45;;;;;;;3.47;0.50;;;4.80;87.00;;;;;;6247244;23;20004;-80
2021/03/14 01:50:14;;;;;;;1.47;0.20;;;4.70;87.20;;;;;;6246727;23;20000;-77
2021/03/14 01:52:41;;;;;;;0.60;0.40;;;4.70;87.30;;;;;;6246348;23;20020;-77
2021/03/14 01:55:08;;;;;;;3.47;0.50;;;4.70;87.60;;;;;;6220227;23;20008;-76
2021/03/14 01:57:36;;;;;;;2.00;0.40;;;4.70;87.70;;;;;;6219830;23;20000;-78
2021/03/14 02:00:05;;;;;;;2.83;0.30;;;4.70;88.20;;;;;;6246884;23;20002;-79
2021/03/14 02:02:31;;;;;;;2.20;0.50;;;4.60;87.90;;;;;;6246830;23;20000;-80
2021/03/14 02:04:57;;;;;;;0.53;0.23;;;4.60;88.30;;;;;;6220801;23;20058;-78
2021/03/14 02:07:22;;;;;;;1.33;0.40;;;4.50;88.60;;;;;;6220170;23;20024;-78
2021/03/14 02:09:48;;;;;;;0.63;0.30;;;4.50;88.50;;;;;;6219485;23;20000;-79
2021/03/14 02:12:18;;;;;;;1.03;0.30;;;4.40;88.70;;;;;;6219472;23;20008;-79
2021/03/14 02:14:44;;;;;;;1.67;0.50;;;4.40;88.80;;;;;;6219614;23;20477;-80
2021/03/14 02:17:15;;;;;;;0.57;0.40;;;4.40;89.00;;;;;;6220550;23;20008;-80
2021/03/14 02:19:51;;;;;;;1.37;0.30;;;4.40;89.00;;;;;;6220022;23;20007;-80
2021/03/14 02:22:18;;;;;;;2.17;0.60;;;4.40;89.40;;;;;;6220837;23;20004;-80
2021/03/14 02:24:46;;;;;;;0.80;0.40;;;4.40;89.30;;;;;;6219305;23;20091;-81
2021/03/14 02:27:13;;;;;;;2.70;0.40;;;4.40;89.30;;;;;;6219408;23;20006;-80
2021/03/14 02:29:41;;;;;;;1.77;1.03;;;4.40;89.50;;;;;;6219661;23;20004;-81
2021/03/14 02:32:09;;;;;;;1.20;0.33;;;4.40;89.40;;;;;;6220775;23;20032;-80
2021/03/14 02:34:37;;;;;;;0.50;0.50;;;4.40;89.40;;;;;;6246481;23;20067;-81
2021/03/14 02:37:06;;;;;;;2.20;0.50;;;4.40;89.50;;;;;;6247079;23;20083;-81
2021/03/14 02:39:34;;;;;;;1.60;0.53;;;4.40;89.40;;;;;;6220133;23;20008;-82
2021/03/14 02:42:01;;;;;;;0.97;0.40;;;4.40;89.80;;;;;;6220149;23;20046;-79
2021/03/14 02:44:35;;;;;;;2.83;0.70;;;4.40;89.80;;;;;;6220203;23;20007;-79
2021/03/14 02:47:02;;;;;;;2.67;0.63;;;4.40;89.50;;;;;;6220104;23;20087;-78
2021/03/14 02:49:29;;;;;;;1.53;0.50;;;4.40;89.00;;;;;;6246625;23;20446;-79
2021/03/14 02:51:54;;;;;;;1.53;0.50;;;4.40;89.10;;;;;;6219740;23;20096;-79
2021/03/14 02:54:22;;;;;;;2.13;0.80;;;4.40;89.20;;;;;;6220226;23;20000;-79
2021/03/14 02:56:50;;;;;;;3.47;0.70;;;4.40;89.10;;;;;;6219725;23;20012;-81
2021/03/14 02:59:21;;;;;;;1.33;0.53;;;4.40;88.90;;;;;;6219663;23;20004;-80
2021/03/14 03:01:49;;;;;;;2.30;0.85;;;4.40;89.10;;;;;;6245955;23;20042;-80
2021/03/14 03:04:26;;;;;;;0.87;0.70;;;4.50;89.20;;;;;;6220155;23;20004;-80
2021/03/14 03:06:57;;;;;;;3.67;0.83;;;4.50;89.40;;;;;;6219458;23;20015;-79
2021/03/14 03:09:23;;;;;;;0.90;0.60;;;4.50;89.40;;;;;;6220316;23;20007;-79
2021/03/14 03:11:50;;;;;;;1.00;0.70;;;4.50;89.60;;;;;;6219509;23;20000;-80
2021/03/14 03:14:19;;;;;;;1.97;0.90;;;4.50;89.60;;;;;;6246655;23;20018;-80
2021/03/14 03:16:50;;;;;;;0.93;0.70;;;4.50;89.60;;;;;;6219221;23;20542;-80
2021/03/14 03:19:18;;;;;;;1.17;0.70;;;4.50;89.50;;;;;;6246866;23;20008;-79
2021/03/14 03:21:44;;;;;;;1.43;0.90;;;4.50;89.20;;;;;;6246257;23;20067;-81
2021/03/14 03:24:11;;;;;;;2.40;1.10;;;4.60;89.20;;;;;;6246279;23;20018;-81
2021/03/14 03:26:46;;;;;;;0.90;0.70;;;4.60;88.80;;;;;;6219955;23;20004;-82
2021/03/14 03:29:13;;;;;;;1.47;0.70;;;4.60;89.00;;;;;;6220538;23;20008;-81
2021/03/14 03:31:39;;;;;;;1.97;0.60;;;4.60;89.00;;;;;;6219303;23;20000;-82
2021/03/14 03:34:09;;;;;;;5.07;1.17;;;4.60;88.80;;;;;;6220248;23;20438;-79
2021/03/14 03:36:35;;;;;;;2.03;0.80;;;4.70;88.60;;;;;;6220034;23;20015;-81
2021/03/14 03:39:04;;;;;;;1.50;0.93;;;4.70;88.60;;;;;;6246224;23;20023;-79
2021/03/14 03:41:32;;;;;;;2.73;1.00;;;4.80;88.20;;;;;;6220841;23;20415;-79
2021/03/14 03:44:00;;;;;;;1.67;0.83;;;4.70;88.60;;;;;;6246327;23;20430;-81
2021/03/14 03:46:26;;;;;;;1.50;0.90;;;4.80;88.30;;;;;;6220793;23;20004;-81
2021/03/14 03:48:55;;;;;;;2.77;1.00;;;4.90;87.90;;;;;;6219442;23;20004;-81
2021/03/14 03:51:27;;;;;;;1.63;1.00;;;4.90;87.80;;;;;;6246552;23;20001;-81
2021/03/14 03:53:56;;;;;;;2.85;0.85;;;4.90;87.80;;;;;;6219569;23;20074;-81
2021/03/14 03:56:22;;;;;;;3.17;1.10;;;5.00;87.70;;;;;;6220085;23;20008;-80
2021/03/14 03:58:49;;;;;;;4.30;1.03;;;5.00;87.60;;;;;;6245627;23;20008;-79
2021/03/14 04:01:15;;;;;;;3.30;0.90;;;5.00;87.50;;;;;;6246549;23;20007;-79
2021/03/14 04:03:44;;;;;;;2.97;0.80;;;4.90;87.10;;;;;;6219023;23;20004;-79
2021/03/14 04:06:15;;;;;;;1.73;0.70;;;5.00;87.30;;;;;;6219793;23;20031;-79
2021/03/14 04:08:43;;;;;;;1.00;0.63;;;5.00;87.20;;;;;;6246062;23;20463;-79
2021/03/14 04:11:12;;;;;;;0.70;0.57;;;5.00;86.80;;;;;;6219944;23;20008;-79
2021/03/14 04:13:40;;;;;;;1.30;0.90;;;5.00;86.30;;;;;;6246033;23;19997;-78
2021/03/14 04:16:07;;;;;;;0.67;0.50;;;5.00;86.00;;;;;;6246493;23;20008;-80
2021/03/14 04:18:34;;;;;;;0.60;0.40;;;5.00;85.60;;;;;;6246872;23;20058;-81
2021/03/14 04:21:03;;;;;;;2.60;0.43;;;5.00;85.20;;;;;;6219428;23;20008;-81
2021/03/14 04:23:31;;;;;;;0.47;0.30;;;4.90;85.30;;;;;;6219943;23;20000;-80
2021/03/14 04:25:57;;;;;;;1.07;0.33;;;4.90;85.40;;;;;;6219132;23;20004;-80
2021/03/14 04:28:27;;;;;;;2.07;0.40;;;4.90;85.20;;;;;;6220214;23;20015;-80
2021/03/14 04:30:53;;;;;;;3.10;0.40;;;4.90;84.60;;;;;;6221389;23;20035;-81
2021/03/14 04:33:20;;;;;;;0.53;0.23;;;4.90;84.30;;;;;;6221825;23;20024;-80
2021/03/14 04:35:46;;;;;;;2.10;0.53;;;4.90;84.30;;;;;;6221240;23;20004;-81
2021/03/14 04:38:13;;;;;;;2.23;0.40;;;4.90;84.10;;;;;;6248610;23;20003;-81
2021/03/14 04:40:40;;;;;;;0.63;0.30;;;4.90;84.20;;;;;;6222071;23;20011;-81
2021/03/14 04:43:07;;;;;;;0.40;0.40;;;4.90;84.70;;;;;;6221373;23;20007;-80
2021/03/14 04:45:35;;;;;;;0.53;0.30;;;4.90;84.50;;;;;;6221420;23;20536;-81
2021/03/14 04:48:00;;;;;;;3.03;0.40;;;4.90;84.40;;;;;;6220578;23;20010;-81
2021/03/14 04:50:28;;;;;;;2.40;0.40;;;4.90;84.30;;;;;;6221648;23;20031;-79
2021/03/14 04:52:57;;;;;;;1.40;0.30;;;4.90;84.20;;;;;;6221400;23;20446;-80
2021/03/14 04:55:24;;;;;;;1.83;0.33;;;4.90;84.70;;;;;;6221914;23;20009;-80
2021/03/14 04:57:51;;;;;;;1.43;0.40;;;4.90;85.00;;;;;;6221275;23;20000;-80
2021/03/14 05:00:18;;;;;;;1.40;0.33;;;4.90;85.10;;;;;;6248750;23;20000;-80
2021/03/14 05:02:48;;;;;;;1.33;0.30;;;4.80;85.20;;;;;;6247648;23;20481;-82
2021/03/14 05:05:14;;;;;;;1.47;0.30;;;4.80;85.60;;;;;;6221747;23;20309;-80
2021/03/14 05:07:45;;;;;;;2.03;0.20;;;4.80;85.70;;;;;;6221546;23;20066;-80
2021/03/14 05:10:15;;;;;;;1.60;0.35;;;4.80;85.60;;;;;;6221917;23;20008;-79
2021/03/14 05:12:42;;;;;;;2.00;0.37;;;4.80;86.00;;;;;;6221780;23;20034;-80
2021/03/14 05:15:13;;;;;;;0.93;0.33;;;4.70;86.00;;;;;;6221495;23;20454;-79
2021/03/14 05:17:40;;;;;;;1.63;0.40;;;4.70;86.10;;;;;;6247845;23;20007;-79
2021/03/14 05:20:10;;;;;;;0.40;0.30;;;4.70;86.50;;;;;;6221195;23;20012;-80
2021/03/14 05:22:37;;;;;;;0.37;0.30;;;4.70;86.40;;;;;;6221722;23;19997;-80
2021/03/14 05:25:04;;;;;;;1.10;0.93;;;4.70;86.90;;;;;;6221121;23;20093;-80
2021/03/14 05:27:31;;;;;;;1.60;0.33;;;4.60;86.60;;;;;;6247909;23;20050;-79
2021/03/14 05:29:57;;;;;;;1.40;0.60;;;4.60;86.70;;;;;;6247588;23;20000;-79
2021/03/14 05:32:23;;;;;;;2.50;0.80;;;4.60;86.70;;;;;;6221458;23;20000;-79
2021/03/14 05:34:48;;;;;;;2.10;0.50;;;4.60;86.90;;;;;;6220778;23;20411;-80
2021/03/14 05:37:14;;;;;;;1.80;0.53;;;4.60;86.80;;;;;;6248029;23;20412;-79
2021/03/14 05:39:39;;;;;;;2.40;0.60;;;4.60;86.80;;;;;;6221259;22;20430;-79
2021/03/14 05:42:06;;;;;;;2.63;0.67;;;4.60;86.30;;;;;;6220378;23;20053;-78
2021/03/14 05:44:32;;;;;;;1.87;0.50;;;4.70;86.80;;;;;;6248061;23;20000;-79
2021/03/14 05:46:58;;;;;;;1.73;0.50;;;4.70;86.60;;;;;;6220577;23;20000;-79
2021/03/14 05:49:24;;;;;;;4.77;0.50;;;4.70;86.00;;;;;;6221724;23;20004;-79
2021/03/14 05:51:51;;;;;;;6.03;0.90;;;4.60;86.20;;;;;;6247479;23;20019;-77
2021/03/14 05:54:18;;;;;;;1.53;0.70;;;4.70;86.00;;;;;;6221776;23;20004;-81
2021/03/14 05:56:48;;;;;;;1.93;1.13;;;4.70;85.60;;;;;;6221028;23;20090;-81
2021/03/14 05:59:18;;;;;;;2.83;0.90;;;4.70;85.40;;;;;;6221923;23;20008;-81
2021/03/14 06:01:49;;;;;;;1.20;0.67;;;4.70;85.40;;;;;;6221009;23;20026;-81
2021/03/14 06:04:17;;;;;;;3.95;0.70;;;4.70;85.20;;;;;;6221512;23;20000;-81
2021/03/14 06:06:43;;;;;;;5.90;0.80;;;4.70;85.40;;;;;;6221107;23;20090;-82
2021/03/14 06:09:09;;;;;;;3.30;1.20;;;4.70;85.10;;;;;;6247098;23;20435;-79
2021/03/14 06:11:34;;;;;;;3.70;0.70;;;4.70;84.70;;;;;;6220997;23;20370;-82
2021/03/14 06:14:00;;;;;;;2.03;0.90;;;4.60;84.80;;;;;;6220694;23;20000;-83
2021/03/14 06:16:26;;;;;;;2.00;0.70;;;4.60;84.30;;;;;;6220617;23;20382;-83
2021/03/14 06:18:53;;;;;;;5.70;1.03;;;4.60;84.60;;;;;;6246863;23;20000;-84
2021/03/14 06:21:24;;;;;;;3.83;0.97;;;4.70;84.40;;;;;;6221103;23;20445;-81
2021/03/14 06:23:57;;;;;;;3.42;1.08;;;4.70;84.30;;;;;;6220391;23;19996;-82
2021/03/14 06:26:46;;;;;;;5.17;1.20;;;4.70;84.30;;;;;;6247435;23;20078;-80
2021/03/14 06:29:18;;;;;;;3.43;1.00;;;4.70;83.60;;;;;;6220394;23;20002;-80
2021/03/14 06:32:05;;;;;;;2.95;0.90;;;4.70;83.50;;;;;;6247390;23;20006;-80
2021/03/14 06:34:37;;;;;;;4.03;1.07;;;4.70;83.40;;;;;;6219886;23;20031;-81
2021/03/14 06:37:16;;;;;;;4.40;1.00;;;4.70;83.00;;;;;;6220216;23;20042;-79
2021/03/14 06:39:49;;;;;;;3.33;0.90;;;4.70;82.50;;;;;;6221016;23;20011;-81
2021/03/14 06:42:38;;;;;;;5.93;1.00;;;4.70;82.80;;;;;;6220674;23;20004;-79
2021/03/14 06:45:06;;;;;;;3.07;0.87;;;4.70;82.20;;;;;;6246621;23;20086;-79
2021/03/14 06:47:49;;;;;;;1.47;0.80;;;4.70;82.60;;;;;;6246951;23;20020;-80
2021/03/14 06:50:27;;;;;;;2.97;0.87;;;4.70;82.50;;;;;;6246943;23;19997;-80
2021/03/14 06:53:19;;;;;;;1.03;0.70;;;4.70;82.50;;;;;;6219798;23;20020;-80
2021/03/14 06:55:48;;;;;;;2.07;0.70;;;4.70;82.10;;;;;;6220234;23;20036;-80
2021/03/14 06:58:28;;;;;;;2.60;0.87;;;4.70;83.00;;;;;;6220189;23;20007;-80
2021/03/14 07:01:21;;;;;;;4.53;1.00;;;4.70;82.00;;;;;;6219660;23;20082;-79
2021/03/14 07:03:50;;;;;;;14.73;6.07;;;4.70;82.30;;;;;;6220077;23;20411;-79
2021/03/14 07:06:18;;;;;;;15.33;5.87;;;4.70;81.90;;;;;;6219706;23;20012;-79
2021/03/14 07:08:46;;;;;;;3.30;1.47;;;4.80;81.90;;;;;;6220105;23;20059;-80
2021/03/14 07:11:12;;;;;;;7.73;1.20;;;4.80;81.70;;;;;;6219391;23;20366;-80
2021/03/14 07:13:40;;;;;;;5.20;0.80;;;4.80;81.30;;;;;;6220206;23;20000;-80
2021/03/14 07:16:06;;;;;;;4.10;0.97;;;4.80;80.90;;;;;;6219105;23;20357;-79
2021/03/14 07:18:35;;;;;;;3.23;0.80;;;4.80;81.50;;;;;;6219958;23;20054;-79
2021/03/14 07:21:21;;;;;;;2.73;0.90;;;4.80;81.80;;;;;;6219544;23;20087;-79
2021/03/14 07:23:46;;;;;;;3.93;1.00;;;4.90;82.10;;;;;;6246707;23;20000;-79
2021/03/14 07:26:12;;;;;;;4.83;1.40;;;4.90;82.90;;;;;;6219479;23;20331;-79
2021/03/14 07:28:38;;;;;;;3.20;1.10;;;4.80;83.30;;;;;;6246468;23;20019;-78
2021/03/14 07:31:04;;;;;;;3.23;1.10;;;4.80;83.40;;;;;;6245800;23;20003;-79
2021/03/14 07:33:31;;;;;;;7.63;1.50;;;4.80;84.10;;;;;;6219541;23;20001;-80
2021/03/14 07:35:57;;;;;;;23.07;8.63;;;4.90;84.30;;;;;;6219487;23;20008;-81
2021/03/14 07:38:23;;;;;;;4.43;1.53;;;4.90;85.10;;;;;;6220190;23;20016;-80
2021/03/14 07:40:48;;;;;;;4.70;1.10;;;4.80;85.30;;;;;;6219995;23;20050;-79
2021/03/14 07:43:14;;;;;;;3.87;1.37;;;4.80;85.00;;;;;;6219298;23;20088;-80
2021/03/14 07:45:40;;;;;;;2.63;0.90;;;4.90;84.90;;;;;;6220188;23;20008;-80
2021/03/14 07:48:06;;;;;;;8.57;1.43;;;4.90;84.90;;;;;;6219287;23;20094;-80
2021/03/14 07:50:45;;;;;;;5.80;1.03;;;5.00;85.40;;;;;;6219784;23;20020;-78
2021/03/14 07:53:14;;;;;;;2.73;1.33;;;5.10;83.60;;;;;;6219002;23;20008;-78
2021/03/14 07:55:45;;;;;;;5.17;1.10;;;5.10;83.80;;;;;;6220253;23;20004;-83
2021/03/14 07:58:13;;;;;;;1.57;0.90;;;5.10;83.00;;;;;;6219835;23;20234;-82
2021/03/14 08:00:39;;;;;;;2.47;0.90;;;5.20;83.30;;;;;;6219805;23;20035;-79
2021/03/14 08:03:07;;;;;;;2.97;0.93;;;5.20;82.10;;;;;;6245971;23;20067;-78
2021/03/14 08:05:41;;;;;;;2.60;1.00;;;5.20;81.90;;;;;;6222030;23;20008;-80
2021/03/14 08:08:11;;;;;;;3.17;1.10;;;5.20;82.80;;;;;;6247933;23;20008;-81
2021/03/14 08:10:42;;;;;;;7.57;1.10;;;5.20;82.40;;;;;;6221992;23;20074;-78
2021/03/14 08:13:14;;;;;;;3.83;1.00;;;5.30;81.80;;;;;;6248200;23;20423;-78
2021/03/14 08:15:41;;;;;;;5.23;1.07;;;5.30;82.10;;;;;;6221678;23;20050;-80
2021/03/14 08:18:41;;;;;;;2.57;0.73;;;5.30;81.00;;;;;;6248197;23;20438;-79
2021/03/14 08:21:19;;;;;;;2.17;0.77;;;5.40;79.90;;;;;;6220720;23;20015;-78
2021/03/14 08:24:04;;;;;;;2.03;0.80;;;5.30;79.80;;;;;;6221684;23;20000;-79
2021/03/14 08:26:35;;;;;;;4.37;1.20;;;5.40;79.80;;;;;;6221356;23;20000;-79
2021/03/14 08:29:03;;;;;;;5.73;1.10;;;5.40;80.10;;;;;;6247375;23;19992;-76
2021/03/14 08:31:44;;;;;;;2.07;0.80;;;5.50;80.60;;;;;;6247609;23;20434;-79
2021/03/14 08:34:12;;;;;;;1.80;0.87;;;5.60;80.80;;;;;;6247288;23;20095;-77
2021/03/14 08:36:42;;;;;;;3.27;0.90;;;5.50;81.00;;;;;;6221013;23;20032;-77
2021/03/14 08:39:19;;;;;;;3.10;0.83;;;5.40;83.00;;;;;;6220670;23;20000;-77
2021/03/14 08:41:57;;;;;;;4.30;0.80;;;5.30;83.00;;;;;;6221179;23;20011;-78
2021/03/14 08:44:52;;;;;;;3.37;0.93;;;5.30;83.70;;;;;;6221482;23;20004;-79
2021/03/14 08:47:23;;;;;;;2.00;1.00;;;5.30;83.80;;;;;;6189639;23;20370;-78
2021/03/14 08:49:52;;;;;;;3.83;0.87;;;5.30;82.30;;;;;;6221565;23;20395;-78
2021/03/14 08:52:19;;;;;;;3.27;0.90;;;5.30;81.80;;;;;;6220392;23;20002;-78
2021/03/14 08:54:54;;;;;;;4.40;0.93;;;5.30;82.10;;;;;;6221012;23;20125;-78
2021/03/14 08:57:20;;;;;;;9.20;1.30;;;5.30;82.10;;;;;;6219079;23;20091;-77
2021/03/14 08:59:51;;;;;;;4.43;1.37;;;5.30;81.10;;;;;;6248127;23;20053;-76
2021/03/14 09:02:28;;;;;;;2.53;0.80;;;5.30;81.50;;;;;;6220199;23;20008;-75
2021/03/14 09:05:10;;;;;;;5.13;0.97;;;5.40;81.00;;;;;;6246524;23;19996;-77
2021/03/14 09:07:35;;;;;;;5.20;1.00;;;5.40;80.60;;;;;;6219552;23;20070;-75
2021/03/14 09:10:16;;;;;;;5.23;0.90;;;5.50;80.60;;;;;;6216690;23;19996;-78
2021/03/14 09:12:56;;;;;;;6.37;1.10;;;5.50;79.50;;;;;;6219229;23;20000;-79
2021/03/14 09:15:22;;;;;;;3.57;0.80;;;5.50;78.80;;;;;;6245720;23;20058;-76
2021/03/14 09:17:48;;;;;;;6.80;1.00;;;5.60;79.10;;;;;;6220108;23;20375;-77
2021/03/14 09:20:16;;;;;;;4.70;0.97;;;5.70;78.90;;;;;;6246333;23;20541;-75
2021/03/14 09:22:42;;;;;;;5.00;0.80;;;5.60;78.80;;;;;;6219225;23;20035;-76
2021/03/14 09:25:09;;;;;;;4.50;0.73;;;5.70;78.60;;;;;;6245232;23;20007;-75
2021/03/14 09:27:36;;;;;;;2.07;0.60;;;5.80;78.90;;;;;;6246227;23;20024;-75
2021/03/14 09:30:11;;;;;;;5.03;0.87;;;5.80;78.20;;;;;;6218195;23;20004;-77
2021/03/14 09:33:01;;;;;;;2.10;0.83;;;5.70;78.60;;;;;;6219982;23;20031;-81
2021/03/14 09:35:28;;;;;;;2.13;0.73;;;5.80;78.70;;;;;;6199746;23;20008;-79
2021/03/14 09:38:16;;;;;;;3.73;0.90;;;5.70;79.80;;;;;;6220115;23;20004;-76
2021/03/14 09:40:47;;;;;;;3.90;0.70;;;5.70;79.10;;;;;;6220015;23;20011;-76
2021/03/14 09:43:28;;;;;;;1.40;0.60;;;5.70;79.00;;;;;;6218605;23;20036;-76
2021/03/14 09:45:56;;;;;;;3.73;0.90;;;5.80;79.80;;;;;;6220206;23;20054;-77
2021/03/14 09:48:22;;;;;;;3.27;0.80;;;5.80;78.60;;;;;;6220041;23;20015;-76
2021/03/14 09:51:09;;;;;;;1.53;0.60;;;5.90;78.90;;;;;;6219694;23;20042;-76
2021/03/14 09:53:39;;;;;;;3.70;0.60;;;6.10;80.00;;;;;;6219901;23;20439;-78
2021/03/14 09:56:07;;;;;;;3.03;1.13;;;6.20;77.30;;;;;;6245912;23;20012;-78
2021/03/14 09:58:34;;;;;;;1.87;0.77;;;6.20;77.00;;;;;;6220525;23;20435;-78
2021/03/14 10:01:01;;;;;;;2.33;0.50;;;6.20;77.60;;;;;;6219550;23;20000;-78
2021/03/14 10:03:32;;;;;;;2.53;0.80;;;6.30;77.60;;;;;;6219839;23;20000;-77
2021/03/14 10:06:02;;;;;;;3.97;0.77;;;6.40;78.50;;;;;;6218665;23;20011;-77
2021/03/14 10:08:33;;;;;;;5.80;0.77;;;6.50;77.00;;;;;;6219752;23;20000;-76
2021/03/14 10:11:04;;;;;;;3.05;0.68;;;6.60;76.30;;;;;;6218620;23;20005;-76
2021/03/14 10:13:31;;;;;;;3.40;0.57;;;6.60;75.60;;;;;;6245694;23;19996;-76
2021/03/14 10:15:58;;;;;;;4.97;0.63;;;6.60;75.70;;;;;;6218012;23;20009;-79
2021/03/14 10:18:25;;;;;;;2.80;0.93;;;6.70;76.20;;;;;;6219603;23;20047;-77
2021/03/14 10:21:25;;;;;;;5.63;0.70;;;6.80;76.40;;;;;;6218169;23;20446;-78
2021/03/14 10:23:52;;;;;;;3.50;0.67;;;6.90;75.20;;;;;;6210641;23;20004;-77
2021/03/14 10:26:18;;;;;;;2.10;0.50;;;6.90;73.70;;;;;;6245510;23;20038;-78
2021/03/14 10:28:47;;;;;;;1.57;0.50;;;6.80;73.30;;;;;;6246831;23;19997;-79
2021/03/14 10:31:15;;;;;;;4.17;0.53;;;6.80;72.90;;;;;;6219290;23;20478;-81
2021/03/14 10:33:43;;;;;;;2.07;0.73;;;6.80;73.40;;;;;;6219738;23;20004;-77
2021/03/14 10:36:16;;;;;;;4.73;0.60;;;6.90;73.80;;;;;;6218317;23;20019;-78
2021/03/14 10:38:49;;;;;;;3.10;0.70;;;6.90;72.60;;;;;;6219705;23;20008;-77
2021/03/14 10:41:23;;;;;;;3.93;0.80;;;6.90;72.00;;;;;;6218891;23;20076;-77
2021/03/14 10:43:58;;;;;;;2.60;0.57;;;6.90;72.20;;;;;;6218790;23;20026;-77
2021/03/14 10:46:41;;;;;;;0.97;0.60;;;6.90;71.70;;;;;;6244674;23;19996;-78
2021/03/14 10:49:09;;;;;;;3.87;0.43;;;6.80;72.30;;;;;;6244773;23;20005;-78
2021/03/14 10:51:37;;;;;;;5.30;0.80;;;6.80;72.70;;;;;;6245881;23;20004;-77
2021/03/14 10:54:14;;;;;;;3.03;0.60;;;6.70;73.20;;;;;;6217667;23;20004;-79
2021/03/14 10:56:42;;;;;;;7.00;1.00;;;6.70;73.10;;;;;;6245487;23;20000;-81
2021/03/14 10:59:30;;;;;;;3.17;0.67;;;6.60;74.20;;;;;;6218269;23;20442;-81
2021/03/14 11:02:10;;;;;;;3.87;0.50;;;6.40;76.30;;;;;;6220154;23;20172;-80
2021/03/14 11:04:36;;;;;;;2.57;0.70;;;6.40;77.10;;;;;;6219904;23;20083;-82
2021/03/14 11:07:24;;;;;;;3.67;0.90;;;6.30;77.10;;;;;;6244756;23;20008;-80
2021/03/14 11:09:50;;;;;;;4.83;0.83;;;6.20;77.60;;;;;;6245742;23;20004;-79
2021/03/14 11:12:36;;;;;;;1.33;0.50;;;6.20;77.40;;;;;;6219047;23;20034;-77
2021/03/14 11:15:03;;;;;;;3.53;0.70;;;6.10;77.50;;;;;;6245628;23;20067;-79
2021/03/14 11:17:36;;;;;;;2.33;0.70;;;6.10;78.10;;;;;;6219248;23;20004;-85
2021/03/14 11:20:07;;;;;;;2.20;0.73;;;6.10;79.10;;;;;;6219474;23;20016;-78
2021/03/14 11:22:32;;;;;;;2.47;0.67;;;6.10;79.30;;;;;;6219911;23;19996;-79
2021/03/14 11:24:58;;;;;;;4.30;0.60;;;6.10;77.80;;;;;;6219057;23;20007;-83
2021/03/14 11:27:24;;;;;;;4.27;0.67;;;6.10;79.00;;;;;;6246160;23;20078;-79
2021/03/14 11:29:50;;;;;;;4.57;0.70;;;6.20;78.90;;;;;;6245854;23;20000;-80
2021/03/14 11:32:16;;;;;;;2.50;0.60;;;6.20;78.50;;;;;;6218238;23;20469;-77
2021/03/14 11:34:44;;;;;;;2.93;0.53;;;6.20;78.60;;;;;;6218971;23;20000;-77
2021/03/14 11:37:14;;;;;;;4.57;1.07;;;6.20;78.50;;;;;;6218316;23;20008;-77
2021/03/14 11:39:41;;;;;;;5.57;0.90;;;6.20;79.10;;;;;;6245491;23;20427;-77
2021/03/14 11:42:08;;;;;;;6.00;1.03;;;6.20;79.00;;;;;;6218198;23;20003;-77
2021/03/14 11:44:34;;;;;;;3.03;0.70;;;6.20;79.50;;;;;;6219104;23;20050;-77
2021/03/14 11:47:00;;;;;;;2.27;0.80;;;6.30;79.90;;;;;;6218400;23;20008;-77
2021/03/14 11:49:26;;;;;;;3.17;0.60;;;6.30;78.90;;;;;;6219332;23;20012;-79
2021/03/14 11:51:51;;;;;;;3.57;0.63;;;6.40;79.60;;;;;;6219431;23;20300;-78
2021/03/14 11:54:17;;;;;;;3.33;0.83;;;6.40;78.30;;;;;;6218474;23;20226;-79
2021/03/14 11:56:47;;;;;;;2.30;0.70;;;6.50;78.30;;;;;;6245751;23;20004;-81
2021/03/14 11:59:14;;;;;;;3.33;0.57;;;6.60;78.00;;;;;;6219019;23;20012;-81
2021/03/14 12:01:39;;;;;;;5.17;0.50;;;6.60;77.20;;;;;;6219521;23;19997;-81
2021/03/14 12:04:06;;;;;;;3.60;1.30;;;6.70;77.90;;;;;;6245456;23;20316;-80
2021/03/14 12:06:32;;;;;;;4.83;0.90;;;6.70;78.20;;;;;;6245500;23;20013;-76
2021/03/14 12:08:58;;;;;;;4.07;0.90;;;6.70;77.60;;;;;;6218404;23;20072;-82
2021/03/14 12:11:24;;;;;;;4.33;0.80;;;6.70;78.20;;;;;;6245949;23;19992;-84
2021/03/14 12:13:50;;;;;;;4.97;1.07;;;6.70;77.80;;;;;;6246173;23;19988;-81
2021/03/14 12:16:15;;;;;;;3.83;0.70;;;6.70;78.80;;;;;;6245375;23;20396;-83
2021/03/14 12:18:41;;;;;;;1.37;0.70;;;6.70;79.00;;;;;;6218920;23;20004;-78
2021/03/14 12:21:08;;;;;;;3.03;0.50;;;6.60;80.50;;;;;;6244858;23;19996;-77
2021/03/14 12:23:36;;;;;;;1.43;0.50;;;6.50;79.30;;;;;;6219147;23;20000;-77
2021/03/14 12:26:05;;;;;;;1.67;0.50;;;6.50;80.50;;;;;;6219394;23;20011;-76
2021/03/14 12:28:31;;;;;;;3.27;0.60;;;6.40;80.90;;;;;;6219080;23;20358;-77
2021/03/14 12:30:57;;;;;;;4.73;0.80;;;6.40;81.00;;;;;;6245025;23;20038;-78
2021/03/14 12:33:23;;;;;;;2.03;0.63;;;6.40;81.80;;;;;;6219031;23;20502;-78
2021/03/14 12:35:49;;;;;;;2.77;0.60;;;6.40;80.90;;;;;;6245648;23;20007;-79
2021/03/14 12:38:19;;;;;;;2.87;0.60;;;6.40;81.80;;;;;;6245498;23;20004;-78
2021/03/14 12:40:48;;;;;;;3.37;0.60;;;6.50;82.70;;;;;;6219100;23;20093;-77
2021/03/14 12:43:18;;;;;;;4.07;0.50;;;6.40;81.60;;;;;;6218533;23;20419;-78
2021/03/14 12:45:47;;;;;;;2.33;0.40;;;6.30;82.50;;;;;;6219568;23;20319;-78
2021/03/14 12:48:12;;;;;;;2.63;0.50;;;6.30;83.20;;;;;;6218677;23;20009;-78
2021/03/14 12:50:38;;;;;;;3.60;0.50;;;6.20;83.20;;;;;;6247416;23;20000;-77
2021/03/14 12:53:04;;;;;;;0.97;0.60;;;6.10;82.90;;;;;;6220460;23;19996;-77
2021/03/14 12:55:30;;;;;;;1.27;0.60;;;6.10;83.70;;;;;;6247193;23;20003;-76
2021/03/14 12:57:55;;;;;;;2.93;0.53;;;6.10;84.10;;;;;;6220860;23;20050;-78
2021/03/14 13:00:22;;;;;;;1.93;0.50;;;6.10;84.00;;;;;;6220978;23;20054;-79
2021/03/14 13:02:48;;;;;;;1.47;0.67;;;6.20;85.10;;;;;;6221385;23;19996;-79
2021/03/14 13:05:14;;;;;;;0.97;0.30;;;6.10;84.80;;;;;;6219926;23;20066;-79
2021/03/14 13:07:40;;;;;;;1.00;0.47;;;6.10;84.70;;;;;;6215027;23;20021;-78